sensor_id;sensor_type;location;lat;lon;timestamp;P1;durP1;ratioP1;P2;durP2;ratioP2
54743;SDS011;40639;53.170;6.728;2023-04-25T00:01:45;15.45;;;3.35;;
54743;SDS011;40639;53.170;6.728;2023-04-25T00:04:11;11.10;;;3.22;;
54743;SDS011;40639;53.170;6.728;2023-04-25T00:06:38;15.15;;;3.47;;
54743;SDS011;40639;53.170;6.728;2023-04-25T00:09:05;13.98;;;2.97;;
54743;SDS011;40639;53.170;6.728;2023-04-25T00:11:35;13.93;;;3.45;;
54743;SDS011;40639;53.170;6.728;2023-04-25T00:14:02;12.52;;;3.50;;
54743;SDS011;40639;53.170;6.728;2023-04-25T00:16:28;15.50;;;3.67;;
54743;SDS011;40639;53.170;6.728;2023-04-25T00:18:58;17.40;;;3.92;;
54743;SDS011;40639;53.170;6.728;2023-04-25T00:21:24;14.57;;;5.15;;
54743;SDS011;40639;53.170;6.728;2023-04-25T00:23:52;11.32;;;3.40;;
54743;SDS011;40639;53.170;6.728;2023-04-25T00:26:18;11.95;;;3.40;;
54743;SDS011;40639;53.170;6.728;2023-04-25T00:28:46;11.57;;;3.78;;
54743;SDS011;40639;53.170;6.728;2023-04-25T00:31:12;12.07;;;3.58;;
54743;SDS011;40639;53.170;6.728;2023-04-25T00:33:38;10.88;;;2.80;;
54743;SDS011;40639;53.170;6.728;2023-04-25T00:36:05;11.35;;;3.00;;
54743;SDS011;40639;53.170;6.728;2023-04-25T00:38:31;13.63;;;3.13;;
54743;SDS011;40639;53.170;6.728;2023-04-25T00:40:57;13.45;;;3.10;;
54743;SDS011;40639;53.170;6.728;2023-04-25T00:43:25;9.55;;;2.60;;
54743;SDS011;40639;53.170;6.728;2023-04-25T00:45:52;10.48;;;3.13;;
54743;SDS011;40639;53.170;6.728;2023-04-25T00:48:18;8.43;;;2.40;;
54743;SDS011;40639;53.170;6.728;2023-04-25T00:50:47;13.07;;;3.13;;
54743;SDS011;40639;53.170;6.728;2023-04-25T00:53:15;11.75;;;2.50;;
54743;SDS011;40639;53.170;6.728;2023-04-25T00:55:41;13.48;;;2.45;;
54743;SDS011;40639;53.170;6.728;2023-04-25T00:58:07;9.00;;;2.45;;
54743;SDS011;40639;53.170;6.728;2023-04-25T01:00:33;13.80;;;2.22;;
54743;SDS011;40639;53.170;6.728;2023-04-25T01:02:59;15.32;;;3.17;;
54743;SDS011;40639;53.170;6.728;2023-04-25T01:05:29;10.35;;;2.70;;
54743;SDS011;40639;53.170;6.728;2023-04-25T01:07:55;8.07;;;2.15;;
54743;SDS011;40639;53.170;6.728;2023-04-25T01:10:21;14.77;;;3.40;;
54743;SDS011;40639;53.170;6.728;2023-04-25T01:12:47;15.88;;;2.67;;
54743;SDS011;40639;53.170;6.728;2023-04-25T01:15:13;9.85;;;3.00;;
54743;SDS011;40639;53.170;6.728;2023-04-25T01:17:40;10.95;;;2.17;;
54743;SDS011;40639;53.170;6.728;2023-04-25T01:20:07;10.75;;;2.25;;
54743;SDS011;40639;53.170;6.728;2023-04-25T01:22:34;13.57;;;2.50;;
54743;SDS011;40639;53.170;6.728;2023-04-25T01:25:00;9.40;;;2.00;;
54743;SDS011;40639;53.170;6.728;2023-04-25T01:27:27;13.27;;;2.03;;
54743;SDS011;40639;53.170;6.728;2023-04-25T01:29:54;13.80;;;2.05;;
54743;SDS011;40639;53.170;6.728;2023-04-25T01:32:21;9.15;;;1.80;;
54743;SDS011;40639;53.170;6.728;2023-04-25T01:34:48;11.10;;;2.38;;
54743;SDS011;40639;53.170;6.728;2023-04-25T01:37:14;9.25;;;2.67;;
54743;SDS011;40639;53.170;6.728;2023-04-25T01:39:40;6.43;;;1.88;;
54743;SDS011;40639;53.170;6.728;2023-04-25T01:42:07;8.60;;;2.38;;
54743;SDS011;40639;53.170;6.728;2023-04-25T01:44:33;9.85;;;2.40;;
54743;SDS011;40639;53.170;6.728;2023-04-25T01:46:59;7.45;;;2.47;;
54743;SDS011;40639;53.170;6.728;2023-04-25T01:49:25;8.70;;;2.00;;
54743;SDS011;40639;53.170;6.728;2023-04-25T01:51:51;7.25;;;2.65;;
54743;SDS011;40639;53.170;6.728;2023-04-25T01:54:18;10.43;;;2.53;;
54743;SDS011;40639;53.170;6.728;2023-04-25T01:56:49;7.78;;;2.17;;
54743;SDS011;40639;53.170;6.728;2023-04-25T01:59:16;9.00;;;2.20;;
54743;SDS011;40639;53.170;6.728;2023-04-25T02:01:42;8.20;;;2.30;;
54743;SDS011;40639;53.170;6.728;2023-04-25T02:04:08;9.57;;;2.55;;
54743;SDS011;40639;53.170;6.728;2023-04-25T02:06:34;7.70;;;2.45;;
54743;SDS011;40639;53.170;6.728;2023-04-25T02:09:00;10.13;;;2.15;;
54743;SDS011;40639;53.170;6.728;2023-04-25T02:11:27;8.75;;;2.20;;
54743;SDS011;40639;53.170;6.728;2023-04-25T02:13:53;10.02;;;1.88;;
54743;SDS011;40639;53.170;6.728;2023-04-25T02:16:19;12.45;;;2.60;;
54743;SDS011;40639;53.170;6.728;2023-04-25T02:18:45;9.93;;;2.67;;
54743;SDS011;40639;53.170;6.728;2023-04-25T02:21:12;9.13;;;2.28;;
54743;SDS011;40639;53.170;6.728;2023-04-25T02:23:38;9.82;;;2.38;;
54743;SDS011;40639;53.170;6.728;2023-04-25T02:26:04;11.95;;;2.60;;
54743;SDS011;40639;53.170;6.728;2023-04-25T02:28:30;11.65;;;2.60;;
54743;SDS011;40639;53.170;6.728;2023-04-25T02:30:56;11.90;;;3.05;;
54743;SDS011;40639;53.170;6.728;2023-04-25T02:33:22;12.60;;;3.00;;
54743;SDS011;40639;53.170;6.728;2023-04-25T02:35:48;15.88;;;2.95;;
54743;SDS011;40639;53.170;6.728;2023-04-25T02:38:15;14.02;;;2.65;;
54743;SDS011;40639;53.170;6.728;2023-04-25T02:40:41;16.33;;;2.90;;
54743;SDS011;40639;53.170;6.728;2023-04-25T02:43:07;10.95;;;2.10;;
54743;SDS011;40639;53.170;6.728;2023-04-25T02:45:33;10.88;;;3.20;;
54743;SDS011;40639;53.170;6.728;2023-04-25T02:48:00;9.88;;;2.30;;
54743;SDS011;40639;53.170;6.728;2023-04-25T02:50:26;11.98;;;2.70;;
54743;SDS011;40639;53.170;6.728;2023-04-25T02:52:52;10.07;;;1.80;;
54743;SDS011;40639;53.170;6.728;2023-04-25T02:55:18;12.88;;;2.45;;
54743;SDS011;40639;53.170;6.728;2023-04-25T02:57:45;14.10;;;2.80;;
54743;SDS011;40639;53.170;6.728;2023-04-25T03:00:11;10.93;;;2.80;;
54743;SDS011;40639;53.170;6.728;2023-04-25T03:02:39;9.82;;;2.45;;
54743;SDS011;40639;53.170;6.728;2023-04-25T03:05:05;11.68;;;2.40;;
54743;SDS011;40639;53.170;6.728;2023-04-25T03:07:32;10.23;;;2.22;;
54743;SDS011;40639;53.170;6.728;2023-04-25T03:09:58;11.57;;;2.60;;
54743;SDS011;40639;53.170;6.728;2023-04-25T03:12:24;7.20;;;2.20;;
54743;SDS011;40639;53.170;6.728;2023-04-25T03:14:50;9.68;;;2.00;;
54743;SDS011;40639;53.170;6.728;2023-04-25T03:17:16;6.75;;;2.15;;
54743;SDS011;40639;53.170;6.728;2023-04-25T03:19:43;8.27;;;2.47;;
54743;SDS011;40639;53.170;6.728;2023-04-25T03:22:09;14.30;;;2.38;;
54743;SDS011;40639;53.170;6.728;2023-04-25T03:24:35;6.90;;;2.30;;
54743;SDS011;40639;53.170;6.728;2023-04-25T03:27:02;14.93;;;2.47;;
54743;SDS011;40639;53.170;6.728;2023-04-25T03:29:28;7.55;;;2.08;;
54743;SDS011;40639;53.170;6.728;2023-04-25T03:31:54;8.27;;;2.00;;
54743;SDS011;40639;53.170;6.728;2023-04-25T03:34:20;12.65;;;2.03;;
54743;SDS011;40639;53.170;6.728;2023-04-25T03:36:47;11.40;;;2.28;;
54743;SDS011;40639;53.170;6.728;2023-04-25T03:39:13;9.38;;;2.38;;
54743;SDS011;40639;53.170;6.728;2023-04-25T03:41:39;12.35;;;1.98;;
54743;SDS011;40639;53.170;6.728;2023-04-25T03:44:05;8.27;;;2.28;;
54743;SDS011;40639;53.170;6.728;2023-04-25T03:46:31;7.32;;;1.83;;
54743;SDS011;40639;53.170;6.728;2023-04-25T03:48:58;9.27;;;2.00;;
54743;SDS011;40639;53.170;6.728;2023-04-25T03:54:40;4.93;;;1.75;;
54743;SDS011;40639;53.170;6.728;2023-04-25T03:57:06;9.30;;;1.60;;
54743;SDS011;40639;53.170;6.728;2023-04-25T03:59:33;11.88;;;2.33;;
54743;SDS011;40639;53.170;6.728;2023-04-25T04:01:59;5.80;;;1.60;;
54743;SDS011;40639;53.170;6.728;2023-04-25T04:04:25;9.00;;;1.70;;
54743;SDS011;40639;53.170;6.728;2023-04-25T04:06:51;4.53;;;1.50;;
54743;SDS011;40639;53.170;6.728;2023-04-25T04:09:17;9.30;;;1.88;;
54743;SDS011;40639;53.170;6.728;2023-04-25T04:11:44;12.80;;;2.20;;
54743;SDS011;40639;53.170;6.728;2023-04-25T04:14:10;6.63;;;1.67;;
54743;SDS011;40639;53.170;6.728;2023-04-25T04:16:36;9.43;;;1.98;;
54743;SDS011;40639;53.170;6.728;2023-04-25T04:19:03;5.75;;;1.95;;
54743;SDS011;40639;53.170;6.728;2023-04-25T04:21:29;8.85;;;2.50;;
54743;SDS011;40639;53.170;6.728;2023-04-25T04:23:55;9.07;;;2.00;;
54743;SDS011;40639;53.170;6.728;2023-04-25T04:26:23;8.07;;;1.92;;
54743;SDS011;40639;53.170;6.728;2023-04-25T04:28:49;7.57;;;1.75;;
54743;SDS011;40639;53.170;6.728;2023-04-25T04:31:17;11.93;;;2.53;;
54743;SDS011;40639;53.170;6.728;2023-04-25T04:33:44;9.10;;;2.00;;
54743;SDS011;40639;53.170;6.728;2023-04-25T04:36:11;10.05;;;1.77;;
54743;SDS011;40639;53.170;6.728;2023-04-25T04:38:38;8.57;;;2.17;;
54743;SDS011;40639;53.170;6.728;2023-04-25T04:41:05;7.32;;;1.70;;
54743;SDS011;40639;53.170;6.728;2023-04-25T04:43:31;8.63;;;2.35;;
54743;SDS011;40639;53.170;6.728;2023-04-25T04:46:00;7.00;;;1.83;;
54743;SDS011;40639;53.170;6.728;2023-04-25T04:48:26;11.95;;;2.00;;
54743;SDS011;40639;53.170;6.728;2023-04-25T04:50:53;10.18;;;2.40;;
54743;SDS011;40639;53.170;6.728;2023-04-25T04:53:19;7.18;;;1.85;;
54743;SDS011;40639;53.170;6.728;2023-04-25T04:55:45;8.82;;;2.40;;
54743;SDS011;40639;53.170;6.728;2023-04-25T04:58:11;14.20;;;2.40;;
54743;SDS011;40639;53.170;6.728;2023-04-25T05:00:37;13.07;;;2.55;;
54743;SDS011;40639;53.170;6.728;2023-04-25T05:03:03;10.88;;;2.17;;
54743;SDS011;40639;53.170;6.728;2023-04-25T05:05:30;8.75;;;2.17;;
54743;SDS011;40639;53.170;6.728;2023-04-25T05:07:56;8.38;;;2.25;;
54743;SDS011;40639;53.170;6.728;2023-04-25T05:10:22;6.93;;;2.85;;
54743;SDS011;40639;53.170;6.728;2023-04-25T05:12:49;10.27;;;2.10;;
54743;SDS011;40639;53.170;6.728;2023-04-25T05:15:15;10.65;;;2.22;;
54743;SDS011;40639;53.170;6.728;2023-04-25T05:17:41;6.63;;;1.98;;
54743;SDS011;40639;53.170;6.728;2023-04-25T05:20:07;9.05;;;1.55;;
54743;SDS011;40639;53.170;6.728;2023-04-25T05:22:36;4.97;;;1.05;;
54743;SDS011;40639;53.170;6.728;2023-04-25T05:25:03;8.63;;;1.60;;
54743;SDS011;40639;53.170;6.728;2023-04-25T05:27:29;5.03;;;1.60;;
54743;SDS011;40639;53.170;6.728;2023-04-25T05:29:55;7.60;;;1.65;;
54743;SDS011;40639;53.170;6.728;2023-04-25T05:32:21;5.72;;;1.38;;
54743;SDS011;40639;53.170;6.728;2023-04-25T05:34:48;3.53;;;1.25;;
54743;SDS011;40639;53.170;6.728;2023-04-25T05:37:15;6.63;;;1.25;;
54743;SDS011;40639;53.170;6.728;2023-04-25T05:39:41;3.65;;;1.40;;
54743;SDS011;40639;53.170;6.728;2023-04-25T05:42:07;5.38;;;1.85;;
54743;SDS011;40639;53.170;6.728;2023-04-25T05:44:33;6.78;;;1.63;;
54743;SDS011;40639;53.170;6.728;2023-04-25T05:46:59;5.13;;;1.20;;
54743;SDS011;40639;53.170;6.728;2023-04-25T05:49:29;6.75;;;1.20;;
54743;SDS011;40639;53.170;6.728;2023-04-25T05:52:04;7.60;;;1.45;;
54743;SDS011;40639;53.170;6.728;2023-04-25T05:54:30;3.90;;;1.48;;
54743;SDS011;40639;53.170;6.728;2023-04-25T05:56:56;7.28;;;1.30;;
54743;SDS011;40639;53.170;6.728;2023-04-25T05:59:41;2.45;;;1.20;;
54743;SDS011;40639;53.170;6.728;2023-04-25T06:02:07;3.28;;;1.27;;
54743;SDS011;40639;53.170;6.728;2023-04-25T06:04:33;9.98;;;1.23;;
54743;SDS011;40639;53.170;6.728;2023-04-25T06:06:59;3.58;;;1.27;;
54743;SDS011;40639;53.170;6.728;2023-04-25T06:09:25;9.48;;;1.80;;
54743;SDS011;40639;53.170;6.728;2023-04-25T06:11:51;4.47;;;1.02;;
54743;SDS011;40639;53.170;6.728;2023-04-25T06:14:17;5.82;;;1.30;;
54743;SDS011;40639;53.170;6.728;2023-04-25T06:16:44;8.88;;;1.27;;
54743;SDS011;40639;53.170;6.728;2023-04-25T06:19:10;5.82;;;1.17;;
54743;SDS011;40639;53.170;6.728;2023-04-25T06:21:36;7.30;;;1.48;;
54743;SDS011;40639;53.170;6.728;2023-04-25T06:24:02;7.78;;;1.92;;
54743;SDS011;40639;53.170;6.728;2023-04-25T06:26:28;9.23;;;1.70;;
54743;SDS011;40639;53.170;6.728;2023-04-25T06:28:54;7.88;;;1.52;;
54743;SDS011;40639;53.170;6.728;2023-04-25T06:31:21;6.63;;;2.15;;
54743;SDS011;40639;53.170;6.728;2023-04-25T06:33:47;6.20;;;1.67;;
54743;SDS011;40639;53.170;6.728;2023-04-25T06:36:13;9.18;;;1.50;;
54743;SDS011;40639;53.170;6.728;2023-04-25T06:38:39;11.80;;;1.75;;
54743;SDS011;40639;53.170;6.728;2023-04-25T06:41:06;7.82;;;1.30;;
54743;SDS011;40639;53.170;6.728;2023-04-25T06:43:32;8.60;;;1.50;;
54743;SDS011;40639;53.170;6.728;2023-04-25T06:45:59;5.82;;;1.23;;
54743;SDS011;40639;53.170;6.728;2023-04-25T06:48:26;5.57;;;1.48;;
54743;SDS011;40639;53.170;6.728;2023-04-25T06:50:52;4.22;;;1.27;;
54743;SDS011;40639;53.170;6.728;2023-04-25T06:53:19;4.03;;;1.40;;
54743;SDS011;40639;53.170;6.728;2023-04-25T06:55:45;4.50;;;1.52;;
54743;SDS011;40639;53.170;6.728;2023-04-25T06:58:11;5.32;;;1.38;;
54743;SDS011;40639;53.170;6.728;2023-04-25T07:00:37;7.60;;;1.80;;
54743;SDS011;40639;53.170;6.728;2023-04-25T07:03:03;4.07;;;1.35;;
54743;SDS011;40639;53.170;6.728;2023-04-25T07:05:29;6.93;;;1.35;;
54743;SDS011;40639;53.170;6.728;2023-04-25T07:07:56;5.30;;;1.50;;
54743;SDS011;40639;53.170;6.728;2023-04-25T07:10:22;9.80;;;1.95;;
54743;SDS011;40639;53.170;6.728;2023-04-25T07:12:48;6.97;;;1.88;;
54743;SDS011;40639;53.170;6.728;2023-04-25T07:15:14;11.18;;;2.25;;
54743;SDS011;40639;53.170;6.728;2023-04-25T07:17:41;8.70;;;1.67;;
54743;SDS011;40639;53.170;6.728;2023-04-25T07:20:07;3.95;;;1.02;;
54743;SDS011;40639;53.170;6.728;2023-04-25T07:22:34;8.45;;;1.80;;
54743;SDS011;40639;53.170;6.728;2023-04-25T07:25:00;6.28;;;1.38;;
54743;SDS011;40639;53.170;6.728;2023-04-25T07:27:27;13.52;;;1.40;;
54743;SDS011;40639;53.170;6.728;2023-04-25T07:29:53;10.80;;;1.33;;
54743;SDS011;40639;53.170;6.728;2023-04-25T07:32:19;9.82;;;1.48;;
54743;SDS011;40639;53.170;6.728;2023-04-25T07:34:45;4.95;;;1.30;;
54743;SDS011;40639;53.170;6.728;2023-04-25T07:37:11;5.07;;;1.08;;
54743;SDS011;40639;53.170;6.728;2023-04-25T07:39:39;8.77;;;1.52;;
54743;SDS011;40639;53.170;6.728;2023-04-25T07:42:05;3.97;;;0.82;;
54743;SDS011;40639;53.170;6.728;2023-04-25T07:44:35;6.63;;;1.10;;
54743;SDS011;40639;53.170;6.728;2023-04-25T07:47:06;6.80;;;1.77;;
54743;SDS011;40639;53.170;6.728;2023-04-25T07:49:36;2.38;;;0.90;;
54743;SDS011;40639;53.170;6.728;2023-04-25T07:52:03;3.72;;;1.00;;
54743;SDS011;40639;53.170;6.728;2023-04-25T07:54:30;3.45;;;0.98;;
54743;SDS011;40639;53.170;6.728;2023-04-25T07:56:56;9.82;;;1.20;;
54743;SDS011;40639;53.170;6.728;2023-04-25T07:59:22;6.32;;;1.27;;
54743;SDS011;40639;53.170;6.728;2023-04-25T08:01:49;7.72;;;1.88;;
54743;SDS011;40639;53.170;6.728;2023-04-25T08:04:15;8.50;;;1.40;;
54743;SDS011;40639;53.170;6.728;2023-04-25T08:06:42;4.22;;;1.02;;
54743;SDS011;40639;53.170;6.728;2023-04-25T08:09:08;4.70;;;1.33;;
54743;SDS011;40639;53.170;6.728;2023-04-25T08:11:34;4.38;;;1.20;;
54743;SDS011;40639;53.170;6.728;2023-04-25T08:14:00;5.35;;;1.13;;
54743;SDS011;40639;53.170;6.728;2023-04-25T08:16:27;3.08;;;0.95;;
54743;SDS011;40639;53.170;6.728;2023-04-25T08:18:53;5.03;;;1.25;;
54743;SDS011;40639;53.170;6.728;2023-04-25T08:21:19;6.28;;;1.30;;
54743;SDS011;40639;53.170;6.728;2023-04-25T08:23:46;2.55;;;0.98;;
54743;SDS011;40639;53.170;6.728;2023-04-25T08:26:12;4.38;;;0.80;;
54743;SDS011;40639;53.170;6.728;2023-04-25T08:28:38;5.47;;;1.20;;
54743;SDS011;40639;53.170;6.728;2023-04-25T08:31:04;4.07;;;0.68;;
54743;SDS011;40639;53.170;6.728;2023-04-25T08:33:30;3.05;;;0.77;;
54743;SDS011;40639;53.170;6.728;2023-04-25T08:35:57;2.70;;;0.68;;
54743;SDS011;40639;53.170;6.728;2023-04-25T08:38:24;2.97;;;0.60;;
54743;SDS011;40639;53.170;6.728;2023-04-25T08:40:51;2.03;;;0.70;;
54743;SDS011;40639;53.170;6.728;2023-04-25T08:43:18;2.58;;;0.70;;
54743;SDS011;40639;53.170;6.728;2023-04-25T08:45:45;3.03;;;0.50;;
54743;SDS011;40639;53.170;6.728;2023-04-25T08:48:12;3.83;;;0.90;;
54743;SDS011;40639;53.170;6.728;2023-04-25T08:50:39;3.97;;;0.80;;
54743;SDS011;40639;53.170;6.728;2023-04-25T08:53:06;1.85;;;0.70;;
54743;SDS011;40639;53.170;6.728;2023-04-25T08:55:36;4.10;;;1.10;;
54743;SDS011;40639;53.170;6.728;2023-04-25T08:58:03;2.35;;;0.85;;
54743;SDS011;40639;53.170;6.728;2023-04-25T09:00:30;3.40;;;0.90;;
54743;SDS011;40639;53.170;6.728;2023-04-25T09:02:57;3.85;;;1.00;;
54743;SDS011;40639;53.170;6.728;2023-04-25T09:05:24;5.78;;;1.38;;
54743;SDS011;40639;53.170;6.728;2023-04-25T09:07:50;6.13;;;1.00;;
54743;SDS011;40639;53.170;6.728;2023-04-25T09:10:17;4.72;;;1.10;;
54743;SDS011;40639;53.170;6.728;2023-04-25T09:12:43;4.28;;;1.33;;
54743;SDS011;40639;53.170;6.728;2023-04-25T09:15:10;5.85;;;1.00;;
54743;SDS011;40639;53.170;6.728;2023-04-25T09:17:36;10.20;;;1.88;;
54743;SDS011;40639;53.170;6.728;2023-04-25T09:20:10;6.75;;;1.73;;
54743;SDS011;40639;53.170;6.728;2023-04-25T09:22:36;5.85;;;1.58;;
54743;SDS011;40639;53.170;6.728;2023-04-25T09:25:12;6.85;;;1.20;;
54743;SDS011;40639;53.170;6.728;2023-04-25T09:27:50;6.20;;;1.50;;
54743;SDS011;40639;53.170;6.728;2023-04-25T09:30:17;5.18;;;1.27;;
54743;SDS011;40639;53.170;6.728;2023-04-25T09:32:43;5.20;;;1.38;;
54743;SDS011;40639;53.170;6.728;2023-04-25T09:35:10;8.25;;;1.10;;
54743;SDS011;40639;53.170;6.728;2023-04-25T09:37:36;4.65;;;1.10;;
54743;SDS011;40639;53.170;6.728;2023-04-25T09:40:04;5.45;;;1.42;;
54743;SDS011;40639;53.170;6.728;2023-04-25T09:42:31;6.28;;;1.00;;
54743;SDS011;40639;53.170;6.728;2023-04-25T09:44:59;5.72;;;1.92;;
54743;SDS011;40639;53.170;6.728;2023-04-25T09:47:29;4.95;;;1.02;;
54743;SDS011;40639;53.170;6.728;2023-04-25T09:49:55;5.28;;;0.90;;
54743;SDS011;40639;53.170;6.728;2023-04-25T09:52:22;4.80;;;1.10;;
54743;SDS011;40639;53.170;6.728;2023-04-25T09:54:49;5.22;;;1.35;;
54743;SDS011;40639;53.170;6.728;2023-04-25T09:57:17;4.43;;;1.20;;
54743;SDS011;40639;53.170;6.728;2023-04-25T09:59:44;4.60;;;1.13;;
54743;SDS011;40639;53.170;6.728;2023-04-25T10:02:10;9.32;;;1.55;;
54743;SDS011;40639;53.170;6.728;2023-04-25T10:04:37;5.25;;;1.20;;
54743;SDS011;40639;53.170;6.728;2023-04-25T10:07:07;3.33;;;0.90;;
54743;SDS011;40639;53.170;6.728;2023-04-25T10:09:36;4.97;;;1.80;;
54743;SDS011;40639;53.170;6.728;2023-04-25T10:12:02;3.55;;;0.98;;
54743;SDS011;40639;53.170;6.728;2023-04-25T10:14:30;3.03;;;1.27;;
54743;SDS011;40639;53.170;6.728;2023-04-25T10:16:57;8.32;;;1.50;;
54743;SDS011;40639;53.170;6.728;2023-04-25T10:19:23;7.03;;;1.52;;
54743;SDS011;40639;53.170;6.728;2023-04-25T10:22:07;3.85;;;1.25;;
54743;SDS011;40639;53.170;6.728;2023-04-25T10:24:37;4.63;;;1.23;;
54743;SDS011;40639;53.170;6.728;2023-04-25T10:27:04;4.05;;;0.90;;
54743;SDS011;40639;53.170;6.728;2023-04-25T10:29:31;5.55;;;0.98;;
54743;SDS011;40639;53.170;6.728;2023-04-25T10:31:57;3.35;;;0.90;;
54743;SDS011;40639;53.170;6.728;2023-04-25T10:34:24;5.40;;;1.25;;
54743;SDS011;40639;53.170;6.728;2023-04-25T10:36:51;4.13;;;1.20;;
54743;SDS011;40639;53.170;6.728;2023-04-25T10:39:25;4.50;;;1.23;;
54743;SDS011;40639;53.170;6.728;2023-04-25T10:41:56;5.07;;;1.25;;
54743;SDS011;40639;53.170;6.728;2023-04-25T10:44:26;4.53;;;1.17;;
54743;SDS011;40639;53.170;6.728;2023-04-25T10:46:54;4.43;;;0.95;;
54743;SDS011;40639;53.170;6.728;2023-04-25T10:49:42;7.57;;;1.42;;
54743;SDS011;40639;53.170;6.728;2023-04-25T10:52:12;3.47;;;1.00;;
54743;SDS011;40639;53.170;6.728;2023-04-25T10:54:42;7.38;;;1.55;;
54743;SDS011;40639;53.170;6.728;2023-04-25T10:57:25;6.35;;;1.67;;
54743;SDS011;40639;53.170;6.728;2023-04-25T10:59:53;6.65;;;1.30;;
54743;SDS011;40639;53.170;6.728;2023-04-25T11:02:19;6.97;;;1.25;;
54743;SDS011;40639;53.170;6.728;2023-04-25T11:04:46;4.78;;;1.15;;
54743;SDS011;40639;53.170;6.728;2023-04-25T11:09:38;9.13;;;1.77;;
54743;SDS011;40639;53.170;6.728;2023-04-25T11:12:06;3.17;;;0.90;;
54743;SDS011;40639;53.170;6.728;2023-04-25T11:14:33;3.78;;;1.10;;
54743;SDS011;40639;53.170;6.728;2023-04-25T11:16:59;4.68;;;1.48;;
54743;SDS011;40639;53.170;6.728;2023-04-25T11:19:27;3.55;;;1.05;;
54743;SDS011;40639;53.170;6.728;2023-04-25T11:21:57;8.02;;;1.30;;
54743;SDS011;40639;53.170;6.728;2023-04-25T11:24:30;5.63;;;1.33;;
54743;SDS011;40639;53.170;6.728;2023-04-25T11:26:59;8.00;;;1.42;;
54743;SDS011;40639;53.170;6.728;2023-04-25T11:29:27;5.10;;;1.25;;
54743;SDS011;40639;53.170;6.728;2023-04-25T11:31:54;5.35;;;1.45;;
54743;SDS011;40639;53.170;6.728;2023-04-25T11:34:23;5.88;;;1.35;;
54743;SDS011;40639;53.170;6.728;2023-04-25T11:36:50;4.88;;;1.00;;
54743;SDS011;40639;53.170;6.728;2023-04-25T11:39:17;3.15;;;1.17;;
54743;SDS011;40639;53.170;6.728;2023-04-25T11:41:44;4.20;;;1.08;;
54743;SDS011;40639;53.170;6.728;2023-04-25T11:44:10;3.47;;;1.08;;
54743;SDS011;40639;53.170;6.728;2023-04-25T11:46:36;5.75;;;1.30;;
54743;SDS011;40639;53.170;6.728;2023-04-25T11:49:03;6.75;;;1.27;;
54743;SDS011;40639;53.170;6.728;2023-04-25T11:51:30;4.10;;;1.10;;
54743;SDS011;40639;53.170;6.728;2023-04-25T11:53:56;6.32;;;1.20;;
54743;SDS011;40639;53.170;6.728;2023-04-25T11:56:22;3.92;;;1.08;;
54743;SDS011;40639;53.170;6.728;2023-04-25T11:58:56;4.30;;;1.15;;
54743;SDS011;40639;53.170;6.728;2023-04-25T12:01:29;4.03;;;1.55;;
54743;SDS011;40639;53.170;6.728;2023-04-25T12:03:55;6.03;;;1.13;;
54743;SDS011;40639;53.170;6.728;2023-04-25T12:06:25;2.03;;;1.02;;
54743;SDS011;40639;53.170;6.728;2023-04-25T12:09:02;4.32;;;1.30;;
54743;SDS011;40639;53.170;6.728;2023-04-25T12:11:32;10.40;;;1.65;;
54743;SDS011;40639;53.170;6.728;2023-04-25T12:14:02;4.20;;;1.02;;
54743;SDS011;40639;53.170;6.728;2023-04-25T12:16:42;5.60;;;1.52;;
54743;SDS011;40639;53.170;6.728;2023-04-25T12:19:08;5.28;;;1.48;;
54743;SDS011;40639;53.170;6.728;2023-04-25T12:21:35;2.90;;;0.90;;
54743;SDS011;40639;53.170;6.728;2023-04-25T12:24:09;8.05;;;1.73;;
54743;SDS011;40639;53.170;6.728;2023-04-25T12:29:21;6.40;;;1.30;;
54743;SDS011;40639;53.170;6.728;2023-04-25T12:31:47;5.38;;;1.38;;
54743;SDS011;40639;53.170;6.728;2023-04-25T12:34:14;5.18;;;1.02;;
54743;SDS011;40639;53.170;6.728;2023-04-25T12:36:40;7.43;;;1.55;;
54743;SDS011;40639;53.170;6.728;2023-04-25T12:39:06;4.57;;;1.60;;
54743;SDS011;40639;53.170;6.728;2023-04-25T12:41:33;6.93;;;1.20;;
54743;SDS011;40639;53.170;6.728;2023-04-25T12:43:59;4.82;;;1.52;;
54743;SDS011;40639;53.170;6.728;2023-04-25T12:46:25;4.57;;;1.50;;
54743;SDS011;40639;53.170;6.728;2023-04-25T12:48:51;4.53;;;1.25;;
54743;SDS011;40639;53.170;6.728;2023-04-25T12:51:17;8.85;;;1.45;;
54743;SDS011;40639;53.170;6.728;2023-04-25T12:53:43;5.53;;;1.30;;
54743;SDS011;40639;53.170;6.728;2023-04-25T12:56:10;7.95;;;1.85;;
54743;SDS011;40639;53.170;6.728;2023-04-25T12:58:36;7.78;;;2.33;;
54743;SDS011;40639;53.170;6.728;2023-04-25T13:01:02;6.75;;;1.25;;
54743;SDS011;40639;53.170;6.728;2023-04-25T13:03:28;4.82;;;1.33;;
54743;SDS011;40639;53.170;6.728;2023-04-25T13:05:54;3.97;;;1.10;;
54743;SDS011;40639;53.170;6.728;2023-04-25T13:08:21;10.27;;;1.38;;
54743;SDS011;40639;53.170;6.728;2023-04-25T13:10:47;4.05;;;1.20;;
54743;SDS011;40639;53.170;6.728;2023-04-25T13:13:13;3.83;;;1.05;;
54743;SDS011;40639;53.170;6.728;2023-04-25T13:15:39;4.53;;;1.00;;
54743;SDS011;40639;53.170;6.728;2023-04-25T13:18:06;8.20;;;0.90;;
54743;SDS011;40639;53.170;6.728;2023-04-25T13:20:32;6.75;;;1.38;;
54743;SDS011;40639;53.170;6.728;2023-04-25T13:22:58;4.75;;;1.40;;
54743;SDS011;40639;53.170;6.728;2023-04-25T13:25:25;4.75;;;1.08;;
54743;SDS011;40639;53.170;6.728;2023-04-25T13:27:51;5.28;;;1.10;;
54743;SDS011;40639;53.170;6.728;2023-04-25T13:30:17;2.85;;;1.10;;
54743;SDS011;40639;53.170;6.728;2023-04-25T13:32:44;2.58;;;0.70;;
54743;SDS011;40639;53.170;6.728;2023-04-25T13:35:10;3.45;;;0.90;;
54743;SDS011;40639;53.170;6.728;2023-04-25T13:37:37;5.10;;;1.17;;
54743;SDS011;40639;53.170;6.728;2023-04-25T13:40:04;4.20;;;1.17;;
54743;SDS011;40639;53.170;6.728;2023-04-25T13:42:31;4.38;;;1.13;;
54743;SDS011;40639;53.170;6.728;2023-04-25T13:44:58;5.30;;;1.55;;
54743;SDS011;40639;53.170;6.728;2023-04-25T13:47:26;5.38;;;1.35;;
54743;SDS011;40639;53.170;6.728;2023-04-25T13:49:53;7.55;;;1.98;;
54743;SDS011;40639;53.170;6.728;2023-04-25T13:52:19;7.68;;;1.42;;
54743;SDS011;40639;53.170;6.728;2023-04-25T13:54:45;5.03;;;1.40;;
54743;SDS011;40639;53.170;6.728;2023-04-25T13:57:12;8.00;;;1.70;;
54743;SDS011;40639;53.170;6.728;2023-04-25T13:59:38;5.65;;;1.33;;
54743;SDS011;40639;53.170;6.728;2023-04-25T14:02:06;2.50;;;1.20;;
54743;SDS011;40639;53.170;6.728;2023-04-25T14:04:32;6.93;;;1.13;;
54743;SDS011;40639;53.170;6.728;2023-04-25T14:06:58;5.25;;;1.20;;
54743;SDS011;40639;53.170;6.728;2023-04-25T14:09:27;4.30;;;1.15;;
54743;SDS011;40639;53.170;6.728;2023-04-25T14:11:57;3.33;;;0.98;;
54743;SDS011;40639;53.170;6.728;2023-04-25T14:14:23;4.28;;;1.10;;
54743;SDS011;40639;53.170;6.728;2023-04-25T14:16:50;4.88;;;1.15;;
54743;SDS011;40639;53.170;6.728;2023-04-25T14:19:18;4.32;;;1.33;;
54743;SDS011;40639;53.170;6.728;2023-04-25T14:21:45;4.65;;;1.20;;
54743;SDS011;40639;53.170;6.728;2023-04-25T14:24:12;5.85;;;1.58;;
54743;SDS011;40639;53.170;6.728;2023-04-25T14:26:38;5.78;;;1.25;;
54743;SDS011;40639;53.170;6.728;2023-04-25T14:29:06;6.75;;;1.83;;
54743;SDS011;40639;53.170;6.728;2023-04-25T14:31:32;6.63;;;1.48;;
54743;SDS011;40639;53.170;6.728;2023-04-25T14:33:59;6.10;;;1.75;;
54743;SDS011;40639;53.170;6.728;2023-04-25T14:36:25;4.20;;;0.93;;
54743;SDS011;40639;53.170;6.728;2023-04-25T14:38:52;3.88;;;1.10;;
54743;SDS011;40639;53.170;6.728;2023-04-25T14:41:18;5.95;;;1.13;;
54743;SDS011;40639;53.170;6.728;2023-04-25T14:43:44;3.92;;;1.00;;
54743;SDS011;40639;53.170;6.728;2023-04-25T14:46:10;8.23;;;1.60;;
54743;SDS011;40639;53.170;6.728;2023-04-25T14:48:37;3.03;;;0.80;;
54743;SDS011;40639;53.170;6.728;2023-04-25T14:51:03;1.95;;;0.77;;
54743;SDS011;40639;53.170;6.728;2023-04-25T14:53:30;6.63;;;1.67;;